AAL593 CYZF-CYYC
Flight info
| Callsign | AAL593 |
|---|---|
| Flight time | 1h 31m |
| Altitude | 37000 |
| Route | ZF DCT GOREK DCT NUBEG DCT OLIMI/N0458F380 Q814 ADVOX ADVOX9 |
| Aircraft | B772/H-SDE2E3FGHIJ5LORVWXY/LB1D1 |
Departure
| Time | 2026-05-04 20:32 |
|---|---|
| Airport | Yellowknife International Airport (CYZF) |
Arrival
| Time | 2026-05-04 22:03 |
|---|---|
| Airport | Calgary International Airport (CYYC) |
| Time | Latitude | Longitude | Altitude | Speed | Heading |
|---|---|---|---|---|---|
| 2026-05-04 20:08 | 62.47080 | -114.43902 | 677 ft | 0 kts | 88° |
| 2026-05-04 20:26 | 62.47080 | -114.43916 | 678 ft | 2 kts | 85° |
| 2026-05-04 20:26 | 62.47076 | -114.43948 | 679 ft | 2 kts | 62° |
| 2026-05-04 20:26 | 62.47067 | -114.43975 | 679 ft | 2 kts | 44° |
| 2026-05-04 20:27 | 62.47055 | -114.43995 | 680 ft | 2 kts | 26° |
| 2026-05-04 20:27 | 62.47041 | -114.44005 | 681 ft | 2 kts | 8° |
| 2026-05-04 20:27 | 62.47030 | -114.44006 | 681 ft | 1 kts | 356° |
| 2026-05-04 20:27 | 62.47029 | -114.44006 | 681 ft | 0 kts | 355° |
| 2026-05-04 20:28 | 62.47035 | -114.44007 | 681 ft | 1 kts | 355° |
| 2026-05-04 20:29 | 62.47059 | -114.44011 | 680 ft | 5 kts | 355° |
| 2026-05-04 20:29 | 62.47115 | -114.44021 | 679 ft | 9 kts | 355° |
| 2026-05-04 20:29 | 62.47197 | -114.44036 | 678 ft | 13 kts | 355° |
| 2026-05-04 20:29 | 62.47295 | -114.44063 | 678 ft | 14 kts | 332° |
| 2026-05-04 20:30 | 62.47322 | -114.44273 | 678 ft | 16 kts | 268° |
| 2026-05-04 20:30 | 62.47277 | -114.44394 | 679 ft | 14 kts | 179° |
| 2026-05-04 20:30 | 62.47264 | -114.44392 | 679 ft | 0 kts | 176° |
| 2026-05-04 20:31 | 62.47251 | -114.44390 | 679 ft | 8 kts | 176° |
| 2026-05-04 20:31 | 62.46991 | -114.44346 | 685 ft | 75 kts | 176° |
| 2026-05-04 20:31 | 62.46215 | -114.44233 | 687 ft | 142 kts | 176° |
| 2026-05-04 20:31 | 62.45142 | -114.44064 | 1102 ft | 156 kts | 175° |
| 2026-05-04 20:32 | 62.44029 | -114.43832 | 1815 ft | 161 kts | 174° |
| 2026-05-04 20:32 | 62.42903 | -114.43591 | 2212 ft | 165 kts | 174° |
| 2026-05-04 20:32 | 62.41734 | -114.43339 | 2592 ft | 169 kts | 174° |
| 2026-05-04 20:32 | 62.40530 | -114.43081 | 3007 ft | 171 kts | 174° |
| 2026-05-04 20:33 | 62.39333 | -114.42824 | 3404 ft | 174 kts | 174° |
| 2026-05-04 20:33 | 62.38098 | -114.42560 | 3799 ft | 178 kts | 175° |
| 2026-05-04 20:33 | 62.36784 | -114.42280 | 3986 ft | 196 kts | 175° |
| 2026-05-04 20:33 | 62.35365 | -114.41978 | 4192 ft | 212 kts | 175° |
| 2026-05-04 20:34 | 62.33821 | -114.41650 | 4387 ft | 231 kts | 175° |
| 2026-05-04 20:34 | 62.32116 | -114.41287 | 4956 ft | 255 kts | 175° |
| 2026-05-04 20:34 | 62.30270 | -114.40896 | 5778 ft | 272 kts | 175° |
| 2026-05-04 20:34 | 62.28360 | -114.40492 | 6743 ft | 283 kts | 175° |
| 2026-05-04 20:35 | 62.26342 | -114.40065 | 7804 ft | 289 kts | 175° |
| 2026-05-04 20:35 | 62.24323 | -114.39638 | 8788 ft | 295 kts | 175° |
| 2026-05-04 20:35 | 62.22267 | -114.39204 | 9748 ft | 300 kts | 175° |
| 2026-05-04 20:35 | 62.20147 | -114.38758 | 10545 ft | 310 kts | 175° |
| 2026-05-04 20:36 | 62.17926 | -114.38291 | 11120 ft | 327 kts | 175° |
| 2026-05-04 20:36 | 62.15587 | -114.37801 | 11677 ft | 343 kts | 175° |
| 2026-05-04 20:36 | 62.13104 | -114.37280 | 12252 ft | 359 kts | 175° |
| 2026-05-04 20:36 | 62.10526 | -114.36740 | 12819 ft | 374 kts | 175° |
| 2026-05-04 20:37 | 62.07868 | -114.36185 | 13420 ft | 388 kts | 175° |
| 2026-05-04 20:37 | 62.05154 | -114.35619 | 14265 ft | 394 kts | 175° |
| 2026-05-04 20:37 | 62.02383 | -114.35041 | 15196 ft | 398 kts | 175° |
| 2026-05-04 20:37 | 61.99587 | -114.34460 | 16153 ft | 400 kts | 175° |
| 2026-05-04 20:38 | 61.96799 | -114.33881 | 17078 ft | 404 kts | 175° |
| 2026-05-04 20:38 | 61.93944 | -114.33289 | 17985 ft | 407 kts | 175° |
| 2026-05-04 20:38 | 61.91120 | -114.32706 | 18900 ft | 410 kts | 174° |
| 2026-05-04 20:38 | 61.88243 | -114.32111 | 19804 ft | 413 kts | 174° |
| 2026-05-04 20:39 | 61.85364 | -114.31518 | 20683 ft | 416 kts | 174° |
| 2026-05-04 20:39 | 61.82576 | -114.30945 | 21492 ft | 419 kts | 174° |
| 2026-05-04 20:39 | 61.79641 | -114.30342 | 22322 ft | 422 kts | 174° |
| 2026-05-04 20:39 | 61.76713 | -114.29742 | 23187 ft | 424 kts | 174° |
| 2026-05-04 20:40 | 61.73737 | -114.29133 | 24053 ft | 425 kts | 174° |
| 2026-05-04 20:40 | 61.71435 | -114.28664 | 24668 ft | 427 kts | 174° |
| 2026-05-04 20:40 | 61.68455 | -114.28055 | 25241 ft | 434 kts | 174° |
| 2026-05-04 20:40 | 61.65372 | -114.27427 | 25671 ft | 445 kts | 174° |
| 2026-05-04 20:41 | 61.62218 | -114.26786 | 26027 ft | 457 kts | 174° |
| 2026-05-04 20:41 | 61.58999 | -114.26134 | 26559 ft | 464 kts | 174° |
| 2026-05-04 20:41 | 61.55770 | -114.25481 | 27265 ft | 466 kts | 175° |
| 2026-05-04 20:41 | 61.52477 | -114.24816 | 27790 ft | 473 kts | 175° |
| 2026-05-04 20:42 | 61.49131 | -114.24143 | 28138 ft | 483 kts | 175° |
| 2026-05-04 20:42 | 61.45736 | -114.23462 | 28637 ft | 489 kts | 175° |
| 2026-05-04 20:42 | 61.42310 | -114.22775 | 29098 ft | 495 kts | 175° |
| 2026-05-04 20:42 | 61.38831 | -114.22079 | 29595 ft | 500 kts | 175° |
| 2026-05-04 20:43 | 61.35305 | -114.21376 | 30212 ft | 502 kts | 175° |
| 2026-05-04 20:43 | 61.31833 | -114.20685 | 30753 ft | 503 kts | 176° |
| 2026-05-04 20:43 | 61.28292 | -114.19982 | 31233 ft | 505 kts | 176° |
| 2026-05-04 20:43 | 61.24773 | -114.19285 | 31696 ft | 508 kts | 176° |
| 2026-05-04 20:44 | 61.21171 | -114.18573 | 32185 ft | 509 kts | 176° |
| 2026-05-04 20:44 | 61.17642 | -114.17876 | 32666 ft | 511 kts | 176° |
| 2026-05-04 20:44 | 61.14053 | -114.17171 | 33157 ft | 512 kts | 176° |
| 2026-05-04 20:44 | 61.10453 | -114.16464 | 33621 ft | 514 kts | 176° |
| 2026-05-04 20:45 | 61.06849 | -114.15758 | 34172 ft | 515 kts | 176° |
| 2026-05-04 20:45 | 61.03271 | -114.15058 | 34806 ft | 513 kts | 176° |
| 2026-05-04 20:45 | 60.99705 | -114.14362 | 35469 ft | 509 kts | 176° |
| 2026-05-04 20:45 | 60.96178 | -114.13675 | 36052 ft | 507 kts | 176° |
| 2026-05-04 20:46 | 60.92612 | -114.12983 | 36530 ft | 507 kts | 176° |
| 2026-05-04 20:46 | 60.89053 | -114.12293 | 36934 ft | 508 kts | 176° |
| 2026-05-04 20:46 | 60.85467 | -114.11601 | 37196 ft | 512 kts | 176° |
| 2026-05-04 20:46 | 60.81889 | -114.10912 | 37225 ft | 514 kts | 176° |
| 2026-05-04 20:47 | 60.74723 | -114.09536 | 37231 ft | 511 kts | 177° |
| 2026-05-04 20:47 | 60.67543 | -114.09166 | 37226 ft | 512 kts | 181° |
| 2026-05-04 20:48 | 60.60400 | -114.09036 | 37228 ft | 511 kts | 181° |
| 2026-05-04 20:48 | 60.53201 | -114.08901 | 37226 ft | 511 kts | 181° |
| 2026-05-04 20:49 | 60.46024 | -114.08762 | 37227 ft | 510 kts | 181° |
| 2026-05-04 20:49 | 60.38859 | -114.08624 | 37225 ft | 512 kts | 181° |
| 2026-05-04 20:50 | 60.32439 | -114.08498 | 37229 ft | 511 kts | 181° |
| 2026-05-04 20:50 | 60.25140 | -114.08357 | 37510 ft | 523 kts | 181° |
| 2026-05-04 20:51 | 60.21481 | -114.08285 | 37942 ft | 522 kts | 181° |
| 2026-05-04 20:51 | 60.17834 | -114.08213 | 38496 ft | 519 kts | 181° |
| 2026-05-04 20:51 | 60.14160 | -114.08141 | 38976 ft | 517 kts | 181° |
| 2026-05-04 20:51 | 60.10552 | -114.08071 | 39205 ft | 520 kts | 181° |
| 2026-05-04 20:52 | 60.03255 | -114.07929 | 39215 ft | 519 kts | 181° |
| 2026-05-04 20:52 | 59.95953 | -114.07788 | 39223 ft | 519 kts | 181° |
| 2026-05-04 20:53 | 59.88633 | -114.07648 | 39210 ft | 521 kts | 181° |
| 2026-05-04 20:53 | 59.81344 | -114.07507 | 39208 ft | 519 kts | 181° |
| 2026-05-04 20:54 | 59.73999 | -114.07368 | 39210 ft | 519 kts | 181° |
| 2026-05-04 20:54 | 59.66718 | -114.07230 | 39197 ft | 521 kts | 181° |
| 2026-05-04 20:55 | 59.59362 | -114.07091 | 39201 ft | 521 kts | 181° |
| 2026-05-04 20:55 | 59.52077 | -114.06953 | 39197 ft | 520 kts | 181° |
| 2026-05-04 20:56 | 59.44761 | -114.06816 | 39192 ft | 521 kts | 181° |
| 2026-05-04 20:56 | 59.37410 | -114.06679 | 39175 ft | 521 kts | 181° |
| 2026-05-04 20:57 | 59.30113 | -114.06544 | 39170 ft | 522 kts | 181° |
| 2026-05-04 20:57 | 59.22741 | -114.06407 | 39154 ft | 524 kts | 181° |
| 2026-05-04 20:58 | 59.15360 | -114.06271 | 39152 ft | 524 kts | 181° |
| 2026-05-04 20:58 | 59.07986 | -114.06136 | 39154 ft | 523 kts | 181° |
| 2026-05-04 20:59 | 59.00608 | -114.06001 | 39159 ft | 523 kts | 181° |
| 2026-05-04 20:59 | 58.93233 | -114.05868 | 39166 ft | 526 kts | 181° |
| 2026-05-04 21:00 | 58.86686 | -114.05749 | 39170 ft | 524 kts | 181° |
| 2026-05-04 21:00 | 58.79277 | -114.05615 | 39187 ft | 524 kts | 181° |
| 2026-05-04 21:01 | 58.71896 | -114.05482 | 39201 ft | 525 kts | 181° |
| 2026-05-04 21:01 | 58.64551 | -114.05351 | 39202 ft | 526 kts | 181° |
| 2026-05-04 21:02 | 58.57113 | -114.05219 | 39201 ft | 526 kts | 181° |
| 2026-05-04 21:02 | 58.49730 | -114.05087 | 39197 ft | 525 kts | 181° |
| 2026-05-04 21:03 | 58.42392 | -114.04958 | 39204 ft | 525 kts | 181° |
| 2026-05-04 21:03 | 58.34989 | -114.04828 | 39197 ft | 525 kts | 181° |
| 2026-05-04 21:04 | 58.27591 | -114.04699 | 39201 ft | 529 kts | 181° |
| 2026-05-04 21:04 | 58.20182 | -114.04569 | 39198 ft | 526 kts | 182° |
| 2026-05-04 21:05 | 58.12794 | -114.04441 | 39197 ft | 527 kts | 182° |
| 2026-05-04 21:05 | 58.05325 | -114.04313 | 39192 ft | 529 kts | 181° |
| 2026-05-04 21:06 | 57.97927 | -114.04184 | 39196 ft | 526 kts | 182° |
| 2026-05-04 21:06 | 57.90523 | -114.04057 | 39194 ft | 528 kts | 182° |
| 2026-05-04 21:07 | 57.83073 | -114.03931 | 39182 ft | 528 kts | 181° |
| 2026-05-04 21:07 | 57.75653 | -114.03805 | 39173 ft | 530 kts | 181° |
| 2026-05-04 21:08 | 57.68194 | -114.03678 | 39164 ft | 530 kts | 181° |
| 2026-05-04 21:08 | 57.60770 | -114.03553 | 39157 ft | 530 kts | 181° |
| 2026-05-04 21:09 | 57.53299 | -114.03427 | 39153 ft | 530 kts | 182° |
| 2026-05-04 21:09 | 57.45864 | -114.03303 | 39151 ft | 529 kts | 181° |
| 2026-05-04 21:10 | 57.39211 | -114.03192 | 39147 ft | 534 kts | 182° |
| 2026-05-04 21:10 | 57.31688 | -114.03067 | 39142 ft | 531 kts | 181° |
| 2026-05-04 21:11 | 57.16899 | -114.02824 | 39145 ft | 534 kts | 182° |
| 2026-05-04 21:12 | 57.09444 | -114.02700 | 39149 ft | 529 kts | 182° |
| 2026-05-04 21:12 | 57.01922 | -114.02578 | 39160 ft | 534 kts | 181° |
| 2026-05-04 21:13 | 56.94468 | -114.02456 | 39174 ft | 529 kts | 181° |
| 2026-05-04 21:13 | 56.87056 | -114.02336 | 39143 ft | 531 kts | 182° |
| 2026-05-04 21:14 | 56.79516 | -114.02215 | 39145 ft | 533 kts | 181° |
| 2026-05-04 21:14 | 56.72037 | -114.02093 | 39143 ft | 532 kts | 182° |
| 2026-05-04 21:15 | 56.64585 | -114.01975 | 39148 ft | 533 kts | 182° |
| 2026-05-04 21:15 | 56.57067 | -114.01855 | 39144 ft | 534 kts | 182° |
| 2026-05-04 21:16 | 56.49572 | -114.01736 | 39143 ft | 535 kts | 182° |
| 2026-05-04 21:16 | 56.42050 | -114.01617 | 39147 ft | 534 kts | 181° |
| 2026-05-04 21:17 | 56.34535 | -114.01498 | 39150 ft | 536 kts | 182° |
| 2026-05-04 21:17 | 56.27043 | -114.01381 | 39160 ft | 533 kts | 181° |
| 2026-05-04 21:18 | 56.19556 | -114.01263 | 39149 ft | 536 kts | 182° |
| 2026-05-04 21:18 | 56.12257 | -114.01150 | 39149 ft | 535 kts | 182° |
| 2026-05-04 21:19 | 56.04785 | -114.01034 | 39163 ft | 535 kts | 182° |
| 2026-05-04 21:19 | 55.98023 | -114.00929 | 39169 ft | 536 kts | 182° |
| 2026-05-04 21:20 | 55.90481 | -114.00814 | 39156 ft | 538 kts | 182° |
| 2026-05-04 21:20 | 55.82975 | -114.00697 | 39139 ft | 533 kts | 182° |
| 2026-05-04 21:21 | 55.75393 | -114.00583 | 39121 ft | 540 kts | 182° |
| 2026-05-04 21:21 | 55.67808 | -114.00466 | 39116 ft | 536 kts | 182° |
| 2026-05-04 21:22 | 55.60273 | -114.00353 | 39099 ft | 539 kts | 182° |
| 2026-05-04 21:22 | 55.52714 | -114.00238 | 39096 ft | 538 kts | 182° |
| 2026-05-04 21:23 | 55.45137 | -114.00124 | 39094 ft | 538 kts | 182° |
| 2026-05-04 21:23 | 55.37532 | -114.00011 | 39084 ft | 541 kts | 182° |
| 2026-05-04 21:24 | 55.29973 | -113.99898 | 39097 ft | 541 kts | 181° |
| 2026-05-04 21:24 | 55.22377 | -113.99784 | 39080 ft | 539 kts | 182° |
| 2026-05-04 21:25 | 55.14752 | -113.99671 | 39087 ft | 541 kts | 182° |
| 2026-05-04 21:25 | 55.07157 | -113.99560 | 39084 ft | 542 kts | 181° |
| 2026-05-04 21:26 | 54.99580 | -113.99448 | 39083 ft | 541 kts | 181° |
| 2026-05-04 21:26 | 54.91962 | -113.99335 | 39094 ft | 539 kts | 182° |
| 2026-05-04 21:27 | 54.84471 | -113.99227 | 39071 ft | 542 kts | 182° |
| 2026-05-04 21:27 | 54.77034 | -113.99118 | 39085 ft | 540 kts | 182° |
| 2026-05-04 21:28 | 54.69404 | -113.99008 | 39084 ft | 543 kts | 182° |
| 2026-05-04 21:28 | 54.61791 | -113.98898 | 39087 ft | 541 kts | 182° |
| 2026-05-04 21:29 | 54.54216 | -113.98789 | 39086 ft | 542 kts | 182° |
| 2026-05-04 21:29 | 54.47406 | -113.98692 | 39099 ft | 542 kts | 181° |
| 2026-05-04 21:30 | 54.39779 | -113.98583 | 39088 ft | 542 kts | 182° |
| 2026-05-04 21:30 | 54.32190 | -113.98475 | 39105 ft | 544 kts | 182° |
| 2026-05-04 21:31 | 54.20758 | -113.98896 | 39105 ft | 540 kts | 186° |
| 2026-05-04 21:32 | 54.13197 | -113.99634 | 39110 ft | 539 kts | 186° |
| 2026-05-04 21:32 | 54.05613 | -114.00342 | 39108 ft | 544 kts | 186° |
| 2026-05-04 21:33 | 53.97975 | -114.01033 | 39100 ft | 542 kts | 186° |
| 2026-05-04 21:33 | 53.90409 | -114.01704 | 39098 ft | 541 kts | 186° |
| 2026-05-04 21:34 | 53.82746 | -114.02376 | 39093 ft | 542 kts | 186° |
| 2026-05-04 21:34 | 53.75145 | -114.03037 | 39091 ft | 543 kts | 186° |
| 2026-05-04 21:35 | 53.67556 | -114.03692 | 39101 ft | 543 kts | 186° |
| 2026-05-04 21:35 | 53.59949 | -114.04345 | 39107 ft | 543 kts | 186° |
| 2026-05-04 21:36 | 53.52332 | -114.04997 | 39106 ft | 542 kts | 186° |
| 2026-05-04 21:36 | 53.44780 | -114.05640 | 39099 ft | 542 kts | 186° |
| 2026-05-04 21:37 | 53.37142 | -114.06289 | 39090 ft | 544 kts | 186° |
| 2026-05-04 21:37 | 53.29554 | -114.06929 | 39100 ft | 543 kts | 186° |
| 2026-05-04 21:38 | 53.21885 | -114.07576 | 39087 ft | 545 kts | 186° |
| 2026-05-04 21:38 | 53.14247 | -114.08217 | 39100 ft | 545 kts | 186° |
| 2026-05-04 21:39 | 53.06609 | -114.08856 | 39088 ft | 545 kts | 186° |
| 2026-05-04 21:39 | 52.98973 | -114.09492 | 39102 ft | 546 kts | 186° |
| 2026-05-04 21:40 | 52.92168 | -114.10057 | 39090 ft | 545 kts | 186° |
| 2026-05-04 21:40 | 52.84525 | -114.10709 | 39087 ft | 543 kts | 188° |
| 2026-05-04 21:41 | 52.77124 | -114.13290 | 38998 ft | 532 kts | 203° |
| 2026-05-04 21:41 | 52.73588 | -114.15192 | 38468 ft | 530 kts | 205° |
| 2026-05-04 21:41 | 52.69992 | -114.17158 | 37611 ft | 538 kts | 205° |
| 2026-05-04 21:41 | 52.66389 | -114.19128 | 36812 ft | 544 kts | 205° |
| 2026-05-04 21:42 | 52.62785 | -114.21090 | 36030 ft | 549 kts | 205° |
| 2026-05-04 21:42 | 52.59119 | -114.23080 | 35239 ft | 554 kts | 205° |
| 2026-05-04 21:42 | 52.55389 | -114.25101 | 34401 ft | 560 kts | 205° |
| 2026-05-04 21:42 | 52.51622 | -114.27137 | 33508 ft | 566 kts | 205° |
| 2026-05-04 21:43 | 52.47852 | -114.29169 | 32534 ft | 571 kts | 205° |
| 2026-05-04 21:43 | 52.44005 | -114.31238 | 31551 ft | 573 kts | 205° |
| 2026-05-04 21:43 | 52.40179 | -114.33289 | 30664 ft | 572 kts | 205° |
| 2026-05-04 21:43 | 52.36391 | -114.35311 | 29995 ft | 561 kts | 205° |
| 2026-05-04 21:44 | 52.32721 | -114.37264 | 29427 ft | 543 kts | 205° |
| 2026-05-04 21:44 | 52.29147 | -114.39161 | 28885 ft | 526 kts | 206° |
| 2026-05-04 21:44 | 52.25666 | -114.41009 | 28308 ft | 511 kts | 205° |
| 2026-05-04 21:44 | 52.22304 | -114.42795 | 27732 ft | 499 kts | 206° |
| 2026-05-04 21:45 | 52.18975 | -114.44565 | 27195 ft | 495 kts | 205° |
| 2026-05-04 21:45 | 52.15640 | -114.46344 | 26604 ft | 505 kts | 206° |
| 2026-05-04 21:45 | 52.12241 | -114.48151 | 26011 ft | 504 kts | 205° |
| 2026-05-04 21:45 | 52.08906 | -114.49914 | 25453 ft | 501 kts | 205° |
| 2026-05-04 21:46 | 52.05534 | -114.51693 | 24883 ft | 496 kts | 205° |
| 2026-05-04 21:46 | 52.02241 | -114.53429 | 24327 ft | 492 kts | 205° |
| 2026-05-04 21:46 | 51.98951 | -114.55161 | 23752 ft | 487 kts | 205° |
| 2026-05-04 21:46 | 51.95710 | -114.56865 | 23195 ft | 483 kts | 205° |
| 2026-05-04 21:47 | 51.92484 | -114.58559 | 22638 ft | 479 kts | 205° |
| 2026-05-04 21:47 | 51.89236 | -114.60262 | 22056 ft | 475 kts | 205° |
| 2026-05-04 21:47 | 51.86108 | -114.61899 | 21477 ft | 470 kts | 205° |
| 2026-05-04 21:47 | 51.82949 | -114.63549 | 20916 ft | 465 kts | 205° |
| 2026-05-04 21:48 | 51.79843 | -114.65171 | 20355 ft | 461 kts | 204° |
| 2026-05-04 21:48 | 51.76742 | -114.66717 | 19793 ft | 459 kts | 199° |
| 2026-05-04 21:48 | 51.73574 | -114.67575 | 19242 ft | 461 kts | 189° |
| 2026-05-04 21:48 | 51.70427 | -114.67591 | 18697 ft | 461 kts | 178° |
| 2026-05-04 21:49 | 51.67193 | -114.66739 | 18129 ft | 460 kts | 167° |
| 2026-05-04 21:49 | 51.64153 | -114.65070 | 17564 ft | 457 kts | 156° |
| 2026-05-04 21:49 | 51.61883 | -114.63185 | 17100 ft | 454 kts | 147° |
| 2026-05-04 21:49 | 51.59241 | -114.60371 | 16531 ft | 450 kts | 144° |
| 2026-05-04 21:50 | 51.56645 | -114.57470 | 15958 ft | 445 kts | 143° |
| 2026-05-04 21:50 | 51.54118 | -114.54512 | 15392 ft | 441 kts | 142° |
| 2026-05-04 21:50 | 51.51606 | -114.51556 | 14791 ft | 438 kts | 143° |
| 2026-05-04 21:50 | 51.49142 | -114.48666 | 14212 ft | 433 kts | 143° |
| 2026-05-04 21:51 | 51.46806 | -114.45554 | 13655 ft | 427 kts | 135° |
| 2026-05-04 21:51 | 51.44644 | -114.42190 | 13083 ft | 422 kts | 134° |
| 2026-05-04 21:51 | 51.42541 | -114.38884 | 12477 ft | 410 kts | 134° |
| 2026-05-04 21:51 | 51.40525 | -114.35721 | 11937 ft | 396 kts | 133° |
| 2026-05-04 21:52 | 51.38575 | -114.32667 | 11348 ft | 384 kts | 134° |
| 2026-05-04 21:52 | 51.36635 | -114.29634 | 10822 ft | 379 kts | 134° |
| 2026-05-04 21:52 | 51.34757 | -114.26702 | 10622 ft | 366 kts | 134° |
| 2026-05-04 21:52 | 51.32950 | -114.23888 | 10553 ft | 351 kts | 134° |
| 2026-05-04 21:53 | 51.31220 | -114.21194 | 10426 ft | 338 kts | 134° |
| 2026-05-04 21:53 | 51.29538 | -114.18579 | 10298 ft | 328 kts | 134° |
| 2026-05-04 21:53 | 51.27997 | -114.15880 | 10140 ft | 315 kts | 123° |
| 2026-05-04 21:53 | 51.26819 | -114.12955 | 10056 ft | 302 kts | 118° |
| 2026-05-04 21:54 | 51.25749 | -114.10081 | 9847 ft | 296 kts | 117° |
| 2026-05-04 21:54 | 51.24680 | -114.07204 | 9519 ft | 296 kts | 117° |
| 2026-05-04 21:54 | 51.23604 | -114.04324 | 9196 ft | 296 kts | 117° |
| 2026-05-04 21:54 | 51.22538 | -114.01484 | 8881 ft | 295 kts | 117° |
| 2026-05-04 21:55 | 51.21473 | -113.98650 | 8569 ft | 294 kts | 117° |
| 2026-05-04 21:55 | 51.20406 | -113.95814 | 8258 ft | 293 kts | 117° |
| 2026-05-04 21:55 | 51.19357 | -113.93035 | 8154 ft | 284 kts | 117° |
| 2026-05-04 21:55 | 51.18334 | -113.90328 | 8076 ft | 273 kts | 116° |
| 2026-05-04 21:56 | 51.17358 | -113.87745 | 8024 ft | 264 kts | 117° |
| 2026-05-04 21:56 | 51.16419 | -113.85197 | 7913 ft | 257 kts | 115° |
| 2026-05-04 21:56 | 51.15518 | -113.82701 | 7814 ft | 253 kts | 115° |
| 2026-05-04 21:56 | 51.14632 | -113.80261 | 7732 ft | 251 kts | 115° |
| 2026-05-04 21:57 | 51.13744 | -113.77824 | 7640 ft | 251 kts | 115° |
| 2026-05-04 21:57 | 51.12853 | -113.75382 | 7542 ft | 250 kts | 115° |
| 2026-05-04 21:57 | 51.11908 | -113.72982 | 7432 ft | 252 kts | 127° |
| 2026-05-04 21:57 | 51.10465 | -113.71394 | 7326 ft | 252 kts | 161° |
| 2026-05-04 21:58 | 51.08737 | -113.71200 | 7214 ft | 241 kts | 195° |
| 2026-05-04 21:58 | 51.07173 | -113.72144 | 7138 ft | 230 kts | 210° |
| 2026-05-04 21:58 | 51.05769 | -113.73330 | 7076 ft | 222 kts | 213° |
| 2026-05-04 21:58 | 51.04499 | -113.74624 | 6974 ft | 204 kts | 232° |
| 2026-05-04 21:59 | 51.03854 | -113.76474 | 6904 ft | 185 kts | 262° |
| 2026-05-04 21:59 | 51.03679 | -113.78530 | 6728 ft | 188 kts | 280° |
| 2026-05-04 21:59 | 51.03943 | -113.80057 | 6523 ft | 174 kts | 304° |
| 2026-05-04 21:59 | 51.04572 | -113.81669 | 6294 ft | 168 kts | 308° |
| 2026-05-04 22:00 | 51.05190 | -113.83260 | 6064 ft | 165 kts | 307° |
| 2026-05-04 22:00 | 51.05782 | -113.84872 | 5838 ft | 163 kts | 307° |
| 2026-05-04 22:00 | 51.06338 | -113.86387 | 5607 ft | 148 kts | 308° |
| 2026-05-04 22:00 | 51.06848 | -113.87757 | 5423 ft | 139 kts | 308° |
| 2026-05-04 22:01 | 51.07332 | -113.89075 | 5231 ft | 134 kts | 309° |
| 2026-05-04 22:01 | 51.07811 | -113.90372 | 5054 ft | 137 kts | 308° |
| 2026-05-04 22:01 | 51.08299 | -113.91705 | 4864 ft | 136 kts | 308° |
| 2026-05-04 22:01 | 51.08787 | -113.93034 | 4655 ft | 137 kts | 308° |
| 2026-05-04 22:02 | 51.09278 | -113.94372 | 4463 ft | 136 kts | 308° |
| 2026-05-04 22:02 | 51.09761 | -113.95695 | 4276 ft | 138 kts | 308° |
| 2026-05-04 22:02 | 51.10245 | -113.97012 | 4097 ft | 135 kts | 309° |
| 2026-05-04 22:02 | 51.10722 | -113.98312 | 3903 ft | 136 kts | 309° |
| 2026-05-04 22:03 | 51.11226 | -113.99673 | 3718 ft | 144 kts | 308° |
| 2026-05-04 22:03 | 51.11723 | -114.01047 | 3547 ft | 136 kts | 308° |
| 2026-05-04 22:03 | 51.12143 | -114.02174 | 3558 ft | 89 kts | 301° |
| 2026-05-04 22:03 | 51.12370 | -114.02796 | 3552 ft | 48 kts | 301° |
| 2026-05-04 22:04 | 51.12561 | -114.03165 | 3552 ft | 28 kts | 327° |
| 2026-05-04 22:04 | 51.12685 | -114.03233 | 3552 ft | 17 kts | 13° |
| 2026-05-04 22:04 | 51.12709 | -114.03091 | 3551 ft | 16 kts | 123° |
| 2026-05-04 22:04 | 51.12645 | -114.02923 | 3551 ft | 18 kts | 120° |
| 2026-05-04 22:05 | 51.12606 | -114.02734 | 3553 ft | 17 kts | 100° |
| 2026-05-04 22:05 | 51.12604 | -114.02548 | 3554 ft | 15 kts | 91° |
| 2026-05-04 22:05 | 51.12604 | -114.02389 | 3557 ft | 12 kts | 89° |
| 2026-05-04 22:05 | 51.12605 | -114.02252 | 3558 ft | 11 kts | 88° |
| 2026-05-04 22:06 | 51.12606 | -114.02116 | 3558 ft | 12 kts | 91° |
| 2026-05-04 22:06 | 51.12604 | -114.01970 | 3558 ft | 13 kts | 90° |
| 2026-05-04 22:06 | 51.12604 | -114.01821 | 3558 ft | 13 kts | 89° |
| 2026-05-04 22:06 | 51.12605 | -114.01657 | 3555 ft | 15 kts | 92° |
| 2026-05-04 22:07 | 51.12603 | -114.01485 | 3555 ft | 14 kts | 81° |
| 2026-05-04 22:07 | 51.12668 | -114.01370 | 3555 ft | 14 kts | 39° |
| 2026-05-04 22:07 | 51.12743 | -114.01269 | 3557 ft | 12 kts | 40° |
| 2026-05-04 22:07 | 51.12804 | -114.01183 | 3560 ft | 10 kts | 51° |
| 2026-05-04 22:08 | 51.12813 | -114.01101 | 3563 ft | 6 kts | 118° |
| 2026-05-04 22:08 | 51.12785 | -114.01031 | 3565 ft | 8 kts | 124° |
| 2026-05-04 22:08 | 51.12772 | -114.00999 | 3566 ft | 11 kts | 124° |
| 2026-05-04 22:09 | 51.12782 | -114.00643 | 3570 ft | 9 kts | 33° |
| 2026-05-04 22:09 | 51.12795 | -114.00568 | 3570 ft | 8 kts | 90° |
| 2026-05-04 22:09 | 51.12795 | -114.00501 | 3570 ft | 3 kts | 90° |
| 2026-05-04 22:09 | 51.12795 | -114.00498 | 3570 ft | 0 kts | 90° |